Time;durP1;ratioP1;P1;durP2;ratioP2;P2;SDS_P1;SDS_P2;PMS_P1;PMS_P2;Temp;Humidity;BMP_temperature;BMP_pressure;BME280_temperature;BME280_humidity;BME280_pressure;Samples;Min_cycle;Max_cycle;Signal;HPM_P1;HPM_P2
2023/10/26 00:02:03;;;;;;;8.20;7.40;;;;;;;-145.68;100.00;72358.66;10477346;28;20330;-76
2023/10/26 00:07:05;;;;;;;9.80;7.20;;;;;;;-145.68;100.00;72346.66;10488977;28;20199;-76
2023/10/26 00:12:05;;;;;;;7.17;6.47;;;;;;;-145.68;100.00;72326.69;10476257;28;20187;-76
2023/10/26 00:17:06;;;;;;;6.77;6.00;;;;;;;-145.68;100.00;72344.66;10476712;28;20202;-76
2023/10/26 00:22:06;;;;;;;8.37;6.10;;;;;;;-145.68;100.00;72328.69;10476029;28;20215;-75
2023/10/26 00:27:07;;;;;;;8.40;6.07;;;;;;;-145.68;100.00;72318.69;10476007;28;20192;-76
2023/10/26 00:32:07;;;;;;;7.07;6.15;;;;;;;-145.68;100.00;72326.69;10476221;28;20195;-76
2023/10/26 00:37:08;;;;;;;7.75;6.93;;;;;;;-145.68;100.00;72336.66;10475738;28;20552;-76
2023/10/26 00:42:08;;;;;;;7.00;6.40;;;;;;;-145.68;100.00;72322.69;10475045;28;20285;-76
2023/10/26 00:47:10;;;;;;;7.43;6.13;;;;;;;-145.68;100.00;72318.69;10474729;28;20192;-76
2023/10/26 00:52:11;;;;;;;7.57;6.00;;;;;;;-145.68;100.00;72316.69;10474462;28;20208;-75
2023/10/26 00:57:14;;;;;;;10.20;6.27;;;;;;;-145.68;100.00;72322.69;10474423;28;20268;-76
2023/10/26 01:02:15;;;;;;;5.90;5.40;;;;;;;-145.68;100.00;72324.69;10467988;28;20216;-76
2023/10/26 01:07:16;;;;;;;4.80;4.40;;;;;;;-145.68;100.00;72316.69;10472572;28;20198;-75
2023/10/26 01:12:17;;;;;;;4.23;3.83;;;;;;;-145.68;100.00;72306.69;10474089;28;20188;-75
2023/10/26 01:17:17;;;;;;;5.10;4.07;;;;;;;-145.68;100.00;72304.69;10474934;28;20262;-75
2023/10/26 01:22:18;;;;;;;3.90;3.53;;;;;;;-145.68;100.00;72304.69;10473492;28;20258;-76
2023/10/26 01:27:19;;;;;;;3.30;3.00;;;;;;;-145.68;100.00;72312.69;10472458;28;20183;-76
2023/10/26 01:32:20;;;;;;;6.85;3.35;;;;;;;-145.68;100.00;72306.69;10472892;28;20188;-76
2023/10/26 01:37:20;;;;;;;2.77;2.57;;;;;;;-145.68;100.00;72316.69;10471460;28;20206;-76
2023/10/26 01:42:21;;;;;;;3.07;2.73;;;;;;;-145.68;100.00;72326.69;10468731;28;20241;-76
2023/10/26 01:47:21;;;;;;;2.00;1.90;;;;;;;-145.68;100.00;72322.69;10471715;28;20196;-78
2023/10/26 01:52:22;;;;;;;2.43;1.70;;;;;;;-145.68;100.00;72336.66;10473205;28;20195;-78
2023/10/26 01:57:22;;;;;;;2.73;1.60;;;;;;;-145.68;100.00;72344.66;10471651;28;20192;-77
2023/10/26 02:02:23;;;;;;;1.70;1.57;;;;;;;-145.68;100.00;72362.66;10470575;28;20239;-76
2023/10/26 02:07:23;;;;;;;2.83;1.70;;;;;;;-145.68;100.00;72368.63;10470433;28;20203;-76
2023/10/26 02:12:24;;;;;;;1.53;1.43;;;;;;;-145.68;100.00;72370.63;10471972;28;20195;-76
2023/10/26 02:17:24;;;;;;;1.90;1.20;;;;;;;-145.68;100.00;72378.63;10470076;28;20240;-76
2023/10/26 02:22:25;;;;;;;3.17;1.23;;;;;;;-145.68;100.00;72396.63;10469847;28;20231;-76
2023/10/26 02:27:25;;;;;;;1.00;1.00;;;;;;;-145.68;100.00;72388.63;10471214;28;20191;-76
2023/10/26 02:32:26;;;;;;;1.83;1.03;;;;;;;-145.68;100.00;72400.59;10453411;28;20537;-75
2023/10/26 02:37:26;;;;;;;1.40;0.90;;;;;;;-145.68;100.00;72396.63;10469426;28;20200;-76
2023/10/26 02:42:27;;;;;;;0.70;0.70;;;;;;;-145.68;100.00;72384.63;10471129;28;20227;-76
2023/10/26 02:47:27;;;;;;;0.90;0.90;;;;;;;-145.68;100.00;72388.63;10470361;28;20203;-76
2023/10/26 02:52:29;;;;;;;0.83;0.70;;;;;;;-145.68;100.00;72374.63;10470589;28;20272;-76
2023/10/26 02:57:31;;;;;;;0.50;0.50;;;;;;;-145.68;100.00;72364.63;10468990;28;20602;-76
2023/10/26 03:02:31;;;;;;;1.43;0.80;;;;;;;-145.68;100.00;72380.63;10469405;28;21176;-76
2023/10/26 03:07:31;;;;;;;0.60;0.60;;;;;;;-145.68;100.00;72386.63;10469572;28;20203;-75
2023/10/26 03:12:32;;;;;;;0.40;0.40;;;;;;;-145.68;100.00;72380.63;10468723;28;20561;-76
2023/10/26 03:17:33;;;;;;;0.60;0.60;;;;;;;-145.68;100.00;72398.63;10469714;28;20199;-76
2023/10/26 03:22:34;;;;;;;0.50;0.50;;;;;;;-145.68;100.00;72394.63;10467994;28;20223;-76
2023/10/26 03:27:34;;;;;;;1.20;0.60;;;;;;;-145.68;100.00;72390.63;10469676;28;20200;-76
2023/10/26 03:32:35;;;;;;;1.07;0.60;;;;;;;-145.68;100.00;72386.63;10470045;28;20187;-76
2023/10/26 03:37:38;;;;;;;0.63;0.63;;;;;;;-145.68;100.00;72396.63;10469116;28;20668;-75
2023/10/26 03:42:39;;;;;;;0.50;0.50;;;;;;;-145.68;100.00;72404.59;10469413;28;20691;-76
2023/10/26 03:47:40;;;;;;;0.77;0.60;;;;;;;-145.68;100.00;72432.59;10469007;28;20208;-75
2023/10/26 03:52:41;;;;;;;0.60;0.60;;;;;;;-145.68;100.00;72466.56;10466873;28;20226;-76
2023/10/26 03:57:41;;;;;;;1.10;0.70;;;;;;;-145.68;100.00;72474.53;10466925;28;20276;-76
2023/10/26 04:02:42;;;;;;;1.63;0.80;;;;;;;-145.68;100.00;72504.53;10468328;28;20227;-77
2023/10/26 04:07:42;;;;;;;0.77;0.70;;;;;;;-145.68;100.00;72506.50;10465943;28;20555;-76
2023/10/26 04:12:43;;;;;;;0.70;0.70;;;;;;;-145.68;100.00;72512.50;10468076;28;20290;-75
2023/10/26 04:17:43;;;;;;;0.70;0.70;;;;;;;-145.68;100.00;72522.50;10468044;28;20199;-76
2023/10/26 04:22:44;;;;;;;0.70;0.70;;;;;;;-145.68;100.00;72540.50;10469412;28;20257;-76
2023/10/26 04:27:44;;;;;;;0.70;0.70;;;;;;;-145.68;100.00;72548.47;10471960;28;20210;-76
2023/10/26 04:32:44;;;;;;;0.60;0.60;;;;;;;-145.68;100.00;72560.47;10478068;28;20195;-77
2023/10/26 04:37:45;;;;;;;0.80;0.80;;;;;;;-145.68;100.00;72560.47;10489652;28;20249;-77
2023/10/26 04:42:45;;;;;;;1.57;0.77;;;;;;;-145.68;100.00;72560.47;10477667;28;20222;-77
2023/10/26 04:47:46;;;;;;;0.73;0.73;;;;;;;-145.68;100.00;72542.50;10477171;28;20223;-76
2023/10/26 04:52:47;;;;;;;1.50;0.90;;;;;;;-145.68;100.00;72542.50;10477239;28;20702;-77
2023/10/26 04:57:48;;;;;;;0.77;0.77;;;;;;;-145.68;100.00;72532.50;10477107;28;21135;-76
2023/10/26 05:02:48;;;;;;;0.97;0.87;;;;;;;-145.68;100.00;72528.50;10476538;28;20222;-77
2023/10/26 05:07:48;;;;;;;0.80;0.80;;;;;;;-145.68;100.00;72520.50;10476312;28;20188;-77
2023/10/26 05:12:49;;;;;;;1.20;0.70;;;;;;;-145.68;100.00;72526.50;10476779;28;20191;-76
2023/10/26 05:17:49;;;;;;;0.70;0.70;;;;;;;-145.68;100.00;72532.50;10475720;28;20684;-76
2023/10/26 05:22:50;;;;;;;1.33;0.70;;;;;;;-145.68;100.00;72536.50;10475370;28;20288;-76
2023/10/26 05:27:50;;;;;;;0.60;0.60;;;;;;;-145.68;100.00;72528.50;10475735;28;20205;-77
2023/10/26 05:32:51;;;;;;;0.70;0.70;;;;;;;-145.68;100.00;72544.50;10475570;28;20194;-76
2023/10/26 05:37:52;;;;;;;0.90;0.90;;;;;;;-145.68;100.00;72542.50;10475512;28;20207;-76
2023/10/26 05:42:52;;;;;;;0.60;0.60;;;;;;;-145.68;100.00;72536.50;10475499;28;20306;-76
2023/10/26 05:47:52;;;;;;;0.73;0.70;;;;;;;-145.68;100.00;72538.50;10473259;28;20211;-76
2023/10/26 05:52:53;;;;;;;0.80;0.80;;;;;;;-145.68;100.00;72546.47;10475741;28;20232;-76
2023/10/26 05:57:53;;;;;;;0.60;0.60;;;;;;;-145.68;100.00;72556.47;10474230;28;20681;-76
2023/10/26 06:02:54;;;;;;;0.80;0.80;;;;;;;-145.68;100.00;72544.50;10473637;28;20324;-75
2023/10/26 06:07:54;;;;;;;0.80;0.80;;;;;;;-145.68;100.00;72554.47;10473962;28;20187;-75
2023/10/26 06:12:54;;;;;;;0.67;0.67;;;;;;;-145.68;100.00;72554.47;10455753;28;20191;-76
2023/10/26 06:17:55;;;;;;;0.70;0.70;;;;;;;-145.68;100.00;72544.50;10452833;28;20556;-76
2023/10/26 06:22:55;;;;;;;1.00;0.93;;;;;;;-145.68;100.00;72534.50;10469439;28;20238;-75
2023/10/26 06:27:56;;;;;;;0.93;0.93;;;;;;;-145.68;100.00;72534.50;10473189;28;20655;-75
2023/10/26 06:32:58;;;;;;;1.30;1.20;;;;;;;-145.68;100.00;72542.50;10473654;28;20586;-75
2023/10/26 06:37:59;;;;;;;1.30;0.97;;;;;;;-145.68;100.00;72532.50;10472996;28;20198;-76
2023/10/26 06:43:00;;;;;;;1.40;1.30;;;;;;;-145.68;100.00;72522.50;10473001;28;20211;-76
2023/10/26 06:48:00;;;;;;;1.10;1.00;;;;;;;-145.68;100.00;72528.50;10471596;28;20712;-75
2023/10/26 06:53:00;;;;;;;1.70;1.60;;;;;;;-145.68;100.00;72528.50;10467860;28;20937;-76
2023/10/26 06:58:01;;;;;;;1.60;1.50;;;;;;;-145.68;100.00;72534.50;10465906;28;20199;-76
2023/10/26 07:03:01;;;;;;;1.27;1.20;;;;;;;-145.68;100.00;72536.50;10469444;28;20211;-75
2023/10/26 07:08:02;;;;;;;2.43;1.33;;;;;;;-145.68;100.00;72534.50;10463306;28;20261;-76
2023/10/26 07:13:02;;;;;;;2.27;2.07;;;;;;;-145.68;100.00;72542.50;10456815;28;20192;-76
2023/10/26 07:18:04;;;;;;;3.13;2.70;;;;;;;-145.68;100.00;72528.50;10471717;28;20211;-75
2023/10/26 07:23:04;;;;;;;4.13;1.70;;;;;;;-145.68;100.00;72530.50;10473652;28;20635;-75
2023/10/26 07:28:05;;;;;;;2.90;1.90;;;;;;;-145.68;100.00;72528.50;10469175;28;20191;-75
2023/10/26 07:33:05;;;;;;;1.90;1.70;;;;;;;-145.68;100.00;72534.50;10471181;28;20192;-75
2023/10/26 07:38:07;;;;;;;1.70;1.60;;;;;;;-145.68;100.00;72540.50;10469268;28;20199;-75
2023/10/26 07:43:08;;;;;;;1.80;1.70;;;;;;;-145.68;100.00;72538.50;10469093;28;20579;-75
2023/10/26 07:48:08;;;;;;;2.53;1.90;;;;;;;-145.68;100.00;72546.47;10468686;28;20215;-74
2023/10/26 07:53:08;;;;;;;2.53;2.03;;;;;;;-145.68;100.00;72532.50;10459369;28;20269;-75
2023/10/26 07:58:09;;;;;;;5.40;2.90;;;;;;;-145.68;100.00;72568.47;10454510;28;20196;-75
2023/10/26 08:03:10;;;;;;;2.80;2.60;;;;;;;-145.68;100.00;72574.47;10465595;28;20586;-75
2023/10/26 08:08:10;;;;;;;3.67;2.33;;;;;;;-145.68;100.00;72560.47;10479177;28;20609;-75
2023/10/26 08:13:10;;;;;;;3.20;2.97;;;;;;;-145.68;100.00;72548.47;10479749;28;20191;-75
2023/10/26 08:18:13;;;;;;;2.27;2.10;;;;;;;-145.68;100.00;72522.50;10462892;28;20211;-75
2023/10/26 08:23:14;;;;;;;3.17;2.97;;;;;;;-145.68;100.00;72550.47;10466653;28;20675;-75
2023/10/26 08:28:15;;;;;;;3.93;3.53;;;;;;;-145.68;100.00;72554.47;10463876;28;20200;-75
2023/10/26 08:33:15;;;;;;;5.43;3.37;;;;;;;-145.68;100.00;72526.50;10476405;28;20207;-74
2023/10/26 08:38:16;;;;;;;3.30;3.00;;;;;;;-145.68;100.00;72506.50;10476813;28;20192;-75
2023/10/26 08:43:17;;;;;;;3.37;3.07;;;;;;;-145.68;100.00;72498.53;10479416;28;20315;-75
2023/10/26 08:48:18;;;;;;;3.90;3.20;;;;;;;-145.68;100.00;72526.50;10469633;28;20269;-76
2023/10/26 08:53:19;;;;;;;6.10;3.37;;;;;;;-145.68;100.00;72524.50;10476822;28;20219;-75
2023/10/26 08:58:20;;;;;;;4.87;4.47;;;;;;;-145.68;100.00;72524.50;10478734;28;20287;-75
2023/10/26 09:03:22;;;;;;;3.60;3.30;;;;;;;-145.68;100.00;72522.50;10478738;28;20575;-75
2023/10/26 09:08:23;;;;;;;5.37;3.77;;;;;;;-145.68;100.00;72526.50;10479146;28;20191;-75
2023/10/26 09:13:25;;;;;;;4.13;3.20;;;;;;;-145.68;100.00;72526.50;10478223;28;20192;-75
2023/10/26 09:18:26;;;;;;;3.43;3.13;;;;;;;-145.68;100.00;72524.50;10472356;28;20223;-75
2023/10/26 09:23:27;;;;;;;3.60;3.30;;;;;;;-145.68;100.00;72524.50;10473357;28;20222;-74
2023/10/26 09:28:28;;;;;;;3.37;3.07;;;;;;;-145.68;100.00;72520.50;10476744;28;20187;-74
2023/10/26 09:33:28;;;;;;;3.93;3.63;;;;;;;-145.68;100.00;72534.50;10475791;28;20219;-74
2023/10/26 09:38:36;;;;;;;3.70;3.27;;;;;;;-145.68;100.00;72504.53;10471457;28;20199;-75
2023/10/26 09:43:37;;;;;;;3.47;3.17;;;;;;;-145.68;100.00;72500.53;10465876;28;20298;-74
2023/10/26 09:48:38;;;;;;;11.50;6.70;;;;;;;-145.68;100.00;72476.53;10474405;28;20207;-75
2023/10/26 09:53:40;;;;;;;3.50;3.20;;;;;;;-145.68;100.00;72448.56;10491752;28;20162;-76
2023/10/26 09:58:41;;;;;;;3.20;2.90;;;;;;;-145.68;100.00;72448.56;10475737;28;20196;-75
2023/10/26 10:03:45;;;;;;;3.30;2.80;;;;;;;-145.68;99.92;72456.56;10469490;28;20227;-75
2023/10/26 10:08:59;;;;;;;3.25;2.95;;;;;;;-145.68;98.70;72424.59;10471861;28;20599;-74
2023/10/26 10:13:59;;;;;;;4.03;2.90;;;;;;;-145.68;96.76;72434.59;10470967;28;20700;-74
2023/10/26 10:19:15;;;;;;;14.35;7.03;;;;;;;-145.68;95.10;72372.63;10467618;28;20257;-74
2023/10/26 10:24:42;;;;;;;2.83;2.33;;;;;;;-145.68;90.97;72376.63;10468949;28;20235;-75
2023/10/26 10:29:42;;;;;;;2.50;2.30;;;;;;;-145.68;87.72;72352.66;10466758;28;20199;-74
2023/10/26 10:34:45;;;;;;;2.22;2.03;;;;;;;-145.68;86.18;72360.66;10467738;28;20668;-74
2023/10/26 10:40:14;;;;;;;3.05;2.75;;;;;;;-145.68;85.66;72368.63;10465465;28;21094;-74
2023/10/26 10:45:16;;;;;;;2.35;2.10;;;;;;;-145.68;83.49;72164.81;10471956;28;20200;-74
2023/10/26 10:50:25;;;;;;;1.67;1.58;;;;;;;-145.68;78.13;72254.75;10471278;28;20705;-74
2023/10/26 10:55:27;;;;;;;2.15;1.80;;;;;;;-145.68;77.34;72190.81;10470165;28;20203;-74
2023/10/26 11:00:42;;;;;;;3.63;1.77;;;;;;;-145.68;77.34;72190.81;10468407;28;20227;-73
2023/10/26 11:05:42;;;;;;;2.40;2.20;;;;;;;-145.68;77.83;72190.81;10465132;28;20533;-73
2023/10/26 11:10:49;;;;;;;1.88;1.77;;;;;;;-145.68;77.83;72294.72;10467426;28;20254;-74
2023/10/26 11:15:49;;;;;;;2.10;1.95;;;;;;;-145.68;77.83;72294.72;10468789;28;20191;-74
2023/10/26 11:20:50;;;;;;;2.38;2.17;;;;;;;-145.68;80.97;72368.63;10468029;28;20243;-74
2023/10/26 11:25:50;;;;;;;1.70;1.48;;;;;;;-145.68;80.97;72368.63;10471547;28;20198;-74
2023/10/26 11:30:51;;;;;;;1.83;1.63;;;;;;;-145.68;0.00;63218.00;10470877;28;20203;-74
2023/10/26 11:35:52;;;;;;;3.33;2.00;;;;;;;-145.68;0.00;117094.09;10481568;28;20191;-74
2023/10/26 11:40:53;;;;;;;2.00;1.80;;;;;;;-145.68;80.97;117094.09;10476551;28;20285;-74
2023/10/26 11:45:53;;;;;;;2.17;1.97;;;;;;;-145.68;80.97;72368.31;10475529;28;20310;-74
2023/10/26 11:50:54;;;;;;;4.95;3.47;;;;;;;-145.68;100.00;63218.00;10477669;28;20209;-74
2023/10/26 11:55:54;;;;;;;3.15;1.80;;;;;;;-145.68;100.00;63218.00;10478532;28;20191;-74
2023/10/26 12:00:54;;;;;;;2.75;2.00;;;;;;;-145.68;100.00;63218.00;10479997;28;20273;-74
2023/10/26 12:05:55;;;;;;;2.20;2.00;;;;;;;-145.68;100.00;63218.00;10467466;28;20199;-74
2023/10/26 12:10:55;;;;;;;4.50;2.22;;;;;;;-145.68;100.00;63218.00;10460602;28;20643;-74
2023/10/26 12:15:56;;;;;;;2.15;1.90;;;;;;;-145.68;100.00;63218.00;10464520;28;20190;-73
2023/10/26 12:20:57;;;;;;;3.83;1.88;;;;;;;-145.68;100.00;63218.00;10479493;28;20223;-73
2023/10/26 12:25:57;;;;;;;3.08;1.70;;;;;;;-145.68;100.00;63218.00;10479588;28;20183;-74
2023/10/26 12:30:57;;;;;;;3.95;2.05;;;;;;;-145.68;100.00;63218.00;10479365;28;20187;-74
2023/10/26 12:35:58;;;;;;;3.58;1.50;;;;;;;-145.68;100.00;63218.00;10479967;28;20195;-74
2023/10/26 12:40:58;;;;;;;1.60;1.50;;;;;;;-145.68;100.00;63218.00;10476612;28;20221;-74
2023/10/26 12:45:58;;;;;;;1.63;1.52;;;;;;;-145.68;100.00;63218.00;10467638;28;20192;-74
2023/10/26 12:50:59;;;;;;;2.38;1.50;;;;;;;-145.68;100.00;63218.00;10469712;28;20203;-74
2023/10/26 12:55:59;;;;;;;0.90;0.90;;;;;;;-145.68;100.00;63218.00;10474781;28;20186;-74
2023/10/26 13:01:00;;;;;;;1.35;1.30;;;;;;;-145.68;100.00;63218.00;10475703;28;20218;-74
2023/10/26 13:06:00;;;;;;;2.65;2.13;;;;;;;-145.68;100.00;63218.00;10474363;28;20182;-74
2023/10/26 13:11:00;;;;;;;7.03;5.40;;;;;;;-145.68;100.00;63218.00;10477002;28;20183;-74
2023/10/26 13:16:01;;;;;;;2.42;1.48;;;;;;;-145.68;100.00;63218.00;10476329;28;21298;-74
2023/10/26 13:21:02;;;;;;;2.60;2.40;;;;;;;-145.68;100.00;63218.00;10472707;28;20244;-74
2023/10/26 13:26:03;;;;;;;2.75;2.55;;;;;;;-145.68;100.00;63218.00;10464948;28;20192;-73
2023/10/26 13:31:03;;;;;;;2.75;2.53;;;;;;;-145.68;100.00;63218.00;10474903;28;20649;-74
2023/10/26 13:36:03;;;;;;;1.83;1.70;;;;;;;-145.68;100.00;63218.00;10474402;28;20663;-74
2023/10/26 13:41:04;;;;;;;3.38;2.67;;;;;;;-145.68;100.00;63218.00;10476856;28;20584;-73
2023/10/26 13:46:07;;;;;;;2.08;1.50;;;;;;;-145.68;100.00;63218.00;10459100;28;20615;-73
2023/10/26 13:51:08;;;;;;;2.60;2.17;;;;;;;-145.68;100.00;63218.00;10473686;28;20200;-74
2023/10/26 13:56:08;;;;;;;1.75;1.65;;;;;;;-145.68;100.00;63218.00;10475652;28;20192;-74
2023/10/26 14:01:13;;;;;;;1.73;1.63;;;;;;;-145.68;100.00;63218.00;10472693;28;20691;-73
2023/10/26 14:06:13;;;;;;;1.65;1.40;;;;;;;-145.68;100.00;63218.00;10475406;28;20238;-74
2023/10/26 14:11:15;;;;;;;2.33;1.70;;;;;;;-145.68;100.00;63218.00;10475171;28;20725;-73
2023/10/26 14:16:19;;;;;;;4.30;1.40;;;;;;;-145.68;100.00;63218.00;10477974;28;20200;-74
2023/10/26 14:21:21;;;;;;;1.75;1.40;;;;;;;-145.68;100.00;63218.00;10475295;28;20239;-74
2023/10/26 14:26:22;;;;;;;1.40;1.30;;;;;;;-145.68;100.00;63218.00;10469890;28;20196;-74
2023/10/26 14:31:22;;;;;;;6.85;4.85;;;;;;;-145.68;100.00;63218.00;10474382;28;20187;-73
2023/10/26 14:36:22;;;;;;;4.97;2.47;;;;;;;-145.68;100.00;63218.00;10474488;28;20203;-73
2023/10/26 14:41:23;;;;;;;4.85;3.25;;;;;;;-145.68;100.00;63218.00;10476866;28;20216;-74
2023/10/26 14:46:23;;;;;;;4.78;3.78;;;;;;;-145.68;100.00;63218.00;10471639;28;20647;-74
2023/10/26 14:57:37;;;;;;;5.77;3.37;;;;;;;-145.68;100.00;63218.00;10419080;28;20224;-72
2023/10/26 15:02:37;;;;;;;2.60;2.20;;;;;;;-145.68;100.00;63218.00;10479433;28;20306;-72
2023/10/26 15:07:37;;;;;;;2.30;2.10;;;;;;;-145.68;100.00;63218.00;10466499;28;20750;-72
2023/10/26 15:12:38;;;;;;;2.27;2.07;;;;;;;-145.68;100.00;63218.00;10456674;28;20179;-72
2023/10/26 15:17:38;;;;;;;2.70;2.50;;;;;;;-145.68;100.00;63218.00;10466299;28;20211;-73
2023/10/26 15:22:39;;;;;;;4.60;4.17;;;;;;;-145.68;100.00;63218.00;10473226;28;20734;-73
2023/10/26 15:27:39;;;;;;;2.60;2.40;;;;;;;-145.68;100.00;63218.00;10452863;28;20195;-73
2023/10/26 15:32:39;;;;;;;5.90;4.77;;;;;;;-145.68;100.00;63218.00;10452908;28;20191;-72
2023/10/26 15:37:40;;;;;;;2.33;2.13;;;;;;;-145.68;100.00;63218.00;10468714;28;20191;-74
2023/10/26 15:42:40;;;;;;;2.97;2.67;;;;;;;-145.68;100.00;63218.00;10472333;28;20227;-75
2023/10/26 15:47:41;;;;;;;4.20;2.10;;;;;;;-145.68;100.00;63218.00;10466799;28;20239;-75
2023/10/26 15:52:42;;;;;;;2.57;2.10;;;;;;;-145.68;100.00;63218.00;10474001;28;20563;-75
2023/10/26 15:57:42;;;;;;;2.30;2.10;;;;;;;-145.68;100.00;63218.00;10471673;28;20190;-74
2023/10/26 16:02:44;;;;;;;3.57;3.10;;;;;;;-145.68;100.00;63218.00;10470831;28;20219;-75
2023/10/26 16:07:45;;;;;;;3.57;3.27;;;;;;;-145.68;100.00;63218.00;10465772;28;20245;-74
2023/10/26 16:12:55;;;;;;;4.10;3.70;;;;;;;-145.68;100.00;63218.00;10468674;28;20180;-74
2023/10/26 16:17:55;;;;;;;3.40;2.53;;;;;;;-145.68;100.00;63218.00;10472450;28;20187;-74
2023/10/26 16:22:56;;;;;;;4.27;2.47;;;;;;;-145.68;100.00;63218.00;10480216;28;20214;-75
2023/10/26 16:27:56;;;;;;;4.43;3.27;;;;;;;-145.68;100.00;63218.00;10479713;28;20184;-75
2023/10/26 16:32:57;;;;;;;4.20;2.83;;;;;;;-145.68;100.00;63218.00;10481408;28;20708;-75
2023/10/26 16:37:57;;;;;;;2.70;2.23;;;;;;;-145.68;100.00;63218.00;10482206;28;20659;-74
2023/10/26 16:42:57;;;;;;;5.07;2.20;;;;;;;-145.68;100.00;63218.00;10481710;28;20206;-75
2023/10/26 16:47:58;;;;;;;3.37;2.47;;;;;;;-145.68;100.00;63218.00;10478269;28;20216;-75
2023/10/26 16:52:58;;;;;;;2.83;2.20;;;;;;;-145.68;100.00;63218.00;10476972;28;20611;-75
2023/10/26 16:57:58;;;;;;;8.47;6.90;;;;;;;-145.68;100.00;63218.00;10480913;28;20188;-75
2023/10/26 17:03:01;;;;;;;5.67;3.73;;;;;;;-145.68;100.00;63218.00;10478813;28;20218;-75
2023/10/26 17:08:03;;;;;;;5.90;3.90;;;;;;;-145.68;100.00;63218.00;10478074;28;20191;-74
2023/10/26 17:13:05;;;;;;;6.00;3.70;;;;;;;-145.68;100.00;63218.00;10472759;28;20191;-75
2023/10/26 17:18:05;;;;;;;6.97;4.53;;;;;;;-145.68;100.00;63218.00;10478446;28;20196;-74
2023/10/26 17:23:06;;;;;;;31.53;17.90;;;;;;;-145.68;100.00;63218.00;10478877;28;20254;-74
2023/10/26 17:28:06;;;;;;;17.47;9.80;;;;;;;-145.68;100.00;63218.00;10474314;28;20199;-75
2023/10/26 17:33:07;;;;;;;10.00;5.60;;;;;;;-145.68;86.66;72632.41;10474660;28;20191;-75
2023/10/26 17:38:08;;;;;;;4.13;3.47;;;;;;;-145.68;87.58;72646.41;10468730;28;20779;-74
2023/10/26 17:43:09;;;;;;;9.80;8.50;;;;;;;-145.68;89.07;72658.38;10469275;28;20265;-75
2023/10/26 17:48:10;;;;;;;26.03;21.60;;;;;;;-145.68;89.44;72664.38;10468563;28;20219;-75
2023/10/26 17:53:10;;;;;;;8.23;5.67;;;;;;;-145.68;90.13;72660.38;10476342;28;20554;-75
2023/10/26 17:58:11;;;;;;;13.37;10.77;;;;;;;-145.68;91.43;72674.38;10477233;28;20545;-75
2023/10/26 18:03:11;;;;;;;4.27;3.87;;;;;;;-145.68;91.79;72664.38;10476686;28;20212;-75
2023/10/26 18:08:12;;;;;;;3.83;3.17;;;;;;;-145.68;91.96;72652.41;10476182;28;20218;-74
2023/10/26 18:13:12;;;;;;;8.10;5.50;;;;;;;-145.68;92.44;72648.41;10473923;28;20671;-75
2023/10/26 18:18:13;;;;;;;6.50;3.87;;;;;;;-145.68;92.84;72652.41;10476054;28;20244;-74
2023/10/26 18:23:13;;;;;;;4.87;3.10;;;;;;;-145.68;93.19;72642.41;10476187;28;20224;-74
2023/10/26 18:28:13;;;;;;;28.97;16.20;;;;;;;-145.68;93.85;72652.41;10475656;28;20180;-75
2023/10/26 18:33:14;;;;;;;13.07;8.97;;;;;;;-145.68;94.97;72648.41;10475947;28;20244;-75
2023/10/26 18:38:14;;;;;;;4.80;3.20;;;;;;;-145.68;96.75;72636.41;10474846;28;20184;-74
2023/10/26 18:43:15;;;;;;;8.53;5.87;;;;;;;-145.68;98.49;72658.38;10475529;28;20740;-74
2023/10/26 18:48:16;;;;;;;10.80;6.53;;;;;;;-145.68;100.00;72658.38;10475076;28;20722;-75
2023/10/26 18:53:19;;;;;;;29.60;13.40;;;;;;;-145.68;100.00;72664.38;10475006;28;20199;-75
2023/10/26 18:58:21;;;;;;;11.87;6.43;;;;;;;-145.68;100.00;72668.38;10472094;28;20192;-75
2023/10/26 19:03:23;;;;;;;3.63;3.30;;;;;;;-145.68;100.00;72658.38;10470004;28;20228;-75
2023/10/26 19:08:23;;;;;;;3.83;3.00;;;;;;;-145.68;100.00;72656.41;10457870;28;20206;-75
2023/10/26 19:13:24;;;;;;;6.63;4.73;;;;;;;-145.68;100.00;72678.38;10471966;28;20198;-74
2023/10/26 19:18:24;;;;;;;3.57;2.70;;;;;;;-145.68;100.00;72692.38;10472416;28;20196;-75
2023/10/26 19:23:24;;;;;;;3.10;2.30;;;;;;;-145.68;100.00;72698.34;10473351;28;20231;-75
2023/10/26 19:28:25;;;;;;;3.83;2.33;;;;;;;-145.68;100.00;72694.38;10473900;28;20179;-75
2023/10/26 19:33:25;;;;;;;3.30;2.63;;;;;;;-145.68;100.00;72720.34;10475330;28;20187;-75
2023/10/26 19:38:26;;;;;;;4.50;3.30;;;;;;;-145.68;100.00;72744.31;10472721;28;20726;-75
2023/10/26 19:43:26;;;;;;;3.53;2.97;;;;;;;-145.68;100.00;72772.31;10472816;28;20613;-74
2023/10/26 19:48:26;;;;;;;7.73;3.60;;;;;;;-145.68;100.00;72794.28;10472864;28;20218;-74
2023/10/26 19:53:33;;;;;;;6.87;4.40;;;;;;;-145.68;100.00;72822.25;10477605;28;20183;-75
2023/10/26 19:58:33;;;;;;;4.17;3.13;;;;;;;-145.68;100.00;72830.25;10480768;28;20195;-74
2023/10/26 20:03:33;;;;;;;5.57;4.40;;;;;;;-145.68;100.00;72848.25;10480846;28;20982;-75
2023/10/26 20:08:35;;;;;;;3.77;2.80;;;;;;;-145.68;100.00;72846.25;10482063;28;20252;-74
2023/10/26 20:13:37;;;;;;;8.57;2.60;;;;;;;-145.68;100.00;72838.25;10481388;28;20542;-74
2023/10/26 20:18:38;;;;;;;3.10;2.80;;;;;;;-145.68;100.00;72830.25;10485165;28;20199;-74
2023/10/26 20:23:39;;;;;;;3.87;2.97;;;;;;;-145.68;100.00;72820.25;10481586;28;20718;-74
2023/10/26 20:28:39;;;;;;;5.17;2.97;;;;;;;-145.68;100.00;72820.25;10481093;28;20199;-74
2023/10/26 20:33:41;;;;;;;2.83;2.57;;;;;;;-145.68;100.00;72836.25;10476715;28;20323;-74
2023/10/26 20:38:42;;;;;;;5.33;2.37;;;;;;;-145.68;100.00;72826.25;10480603;28;20564;-74
2023/10/26 20:43:45;;;;;;;2.90;2.60;;;;;;;-145.68;100.00;72818.25;10479442;28;20302;-74
2023/10/26 20:48:46;;;;;;;3.73;2.50;;;;;;;-145.68;100.00;72842.25;10480424;28;20229;-74
2023/10/26 20:53:46;;;;;;;3.57;2.50;;;;;;;-145.68;100.00;72864.22;10480543;28;20200;-74
2023/10/26 20:58:47;;;;;;;4.50;2.43;;;;;;;-145.68;100.00;72880.22;10480850;28;20199;-74
2023/10/26 21:03:47;;;;;;;4.00;3.10;;;;;;;-145.68;100.00;72916.19;10478305;28;20417;-74
2023/10/26 21:34:30;;;;;;;3.00;2.30;;;;;;;-145.68;100.00;72978.16;10463532;28;20195;-74
2023/10/26 21:39:31;;;;;;;3.40;3.07;;;;;;;-145.68;100.00;72972.16;10451627;28;20708;-74
2023/10/26 21:44:31;;;;;;;3.03;2.70;;;;;;;-145.68;100.00;72954.16;10464284;28;20242;-74
2023/10/26 21:49:32;;;;;;;2.83;2.63;;;;;;;-145.68;100.00;72940.16;10455870;28;20263;-74
2023/10/26 21:54:32;;;;;;;3.03;2.27;;;;;;;-145.68;100.00;72926.19;10447938;28;20649;-75
2023/10/26 21:59:32;;;;;;;2.53;2.33;;;;;;;-145.68;100.00;72922.19;10465044;28;20191;-74
2023/10/26 22:04:33;;;;;;;2.90;2.20;;;;;;;-145.68;100.00;72914.19;10465865;28;20215;-74
2023/10/26 22:09:33;;;;;;;2.97;2.50;;;;;;;-145.68;100.00;72886.22;10459951;28;20195;-74
2023/10/26 22:14:34;;;;;;;4.80;2.43;;;;;;;-145.68;100.00;72886.22;10460420;28;20192;-74
2023/10/26 22:19:36;;;;;;;3.30;2.40;;;;;;;-145.68;100.00;72868.22;10464137;28;20192;-74
2023/10/26 22:24:36;;;;;;;2.70;2.10;;;;;;;-145.68;100.00;72856.22;10453521;28;20228;-74
2023/10/26 22:29:37;;;;;;;3.67;2.07;;;;;;;-145.68;100.00;72836.25;10459255;28;20252;-73
2023/10/26 22:34:38;;;;;;;2.57;2.37;;;;;;;-145.68;100.00;72826.25;10461258;28;20204;-74
2023/10/26 22:39:39;;;;;;;3.03;2.37;;;;;;;-145.68;100.00;72812.28;10454250;28;20183;-74
2023/10/26 22:44:39;;;;;;;2.33;2.07;;;;;;;-145.68;100.00;72806.28;10473494;28;20207;-73
2023/10/26 22:49:39;;;;;;;7.30;2.43;;;;;;;-145.68;100.00;72796.28;10462937;28;20215;-74
2023/10/26 22:54:40;;;;;;;4.53;2.27;;;;;;;-145.68;100.00;72790.28;10456637;28;20200;-74
2023/10/26 22:59:40;;;;;;;3.70;2.23;;;;;;;-145.68;100.00;72788.28;10457612;28;20192;-74
2023/10/26 23:04:41;;;;;;;2.57;2.23;;;;;;;-145.68;100.00;72792.28;10459259;28;20226;-74